Time;durP1;ratioP1;P1;durP2;ratioP2;P2;SDS_P1;SDS_P2;PMS_P1;PMS_P2;Temp;Humidity;BMP_temperature;BMP_pressure;BME280_temperature;BME280_humidity;BME280_pressure;Samples;Min_cycle;Max_cycle;Signal;HPM_P1;HPM_P2
2023/10/26 00:01:38;;;;;;;1999.90;999.90;;;;;;;16.06;80.19;99447.69;10540613;28;20047;-59
2023/10/26 00:06:40;;;;;;;1999.90;999.90;;;;;;;15.68;79.68;99459.44;10539945;28;20055;-60
2023/10/26 00:11:43;;;;;;;1999.90;999.90;;;;;;;15.66;81.94;99477.25;10540199;28;20044;-60
2023/10/26 00:16:45;;;;;;;1999.90;999.90;;;;;;;15.55;83.02;99481.78;10540082;28;20135;-60
2023/10/26 00:21:48;;;;;;;1999.90;999.90;;;;;;;16.06;78.88;99481.19;10539924;28;20048;-60
2023/10/26 00:26:50;;;;;;;1999.90;999.90;;;;;;;15.48;81.31;99480.72;10539250;28;20054;-60
2023/10/26 00:31:52;;;;;;;1999.90;999.90;;;;;;;16.38;79.02;99474.44;10539775;28;20044;-59
2023/10/26 00:36:55;;;;;;;1999.90;999.90;;;;;;;15.84;79.98;99485.16;10539113;28;20408;-60
2023/10/26 00:41:57;;;;;;;1999.90;999.90;;;;;;;15.60;80.34;99489.22;10539618;28;20054;-60
2023/10/26 00:47:01;;;;;;;1999.90;999.90;;;;;;;15.98;78.53;99500.44;10521727;28;20072;-60
2023/10/26 00:52:04;;;;;;;1999.90;999.90;;;;;;;16.01;76.61;99494.03;10524696;28;20072;-60
2023/10/26 00:57:06;;;;;;;1999.90;999.90;;;;;;;15.85;80.24;99510.56;10547641;28;20052;-59
2023/10/26 01:02:09;;;;;;;1999.90;999.90;;;;;;;15.73;78.50;99510.75;10546815;28;20048;-60
2023/10/26 01:07:11;;;;;;;1999.90;999.90;;;;;;;15.01;82.59;99516.03;10528714;28;20135;-60
2023/10/26 01:12:14;;;;;;;1999.90;999.90;;;;;;;15.86;78.94;99520.97;10547107;28;20048;-60
2023/10/26 01:17:17;;;;;;;1999.90;999.90;;;;;;;15.44;80.51;99531.28;10528952;28;20113;-59
2023/10/26 01:22:19;;;;;;;1999.90;999.90;;;;;;;15.17;82.76;99539.09;10528708;28;20075;-59
2023/10/26 01:27:21;;;;;;;1999.90;999.90;;;;;;;14.91;80.37;99543.41;10546370;28;20054;-59
2023/10/26 01:32:26;;;;;;;1999.90;999.90;;;;;;;15.32;80.44;99539.41;10528348;28;20048;-60
2023/10/26 01:37:29;;;;;;;1999.90;999.90;;;;;;;15.58;77.36;99550.06;10546066;28;20052;-62
2023/10/26 01:42:31;;;;;;;1999.90;999.90;;;;;;;15.41;77.79;99564.88;10545833;28;20051;-60
2023/10/26 01:47:33;;;;;;;1999.90;999.90;;;;;;;15.15;78.80;99570.06;10527250;28;20048;-61
2023/10/26 01:52:36;;;;;;;1999.90;999.90;;;;;;;15.04;79.44;99570.25;10545522;28;20135;-60
2023/10/26 01:57:38;;;;;;;1999.90;999.90;;;;;;;15.13;79.72;99565.91;10545250;28;20058;-60
2023/10/26 02:02:41;;;;;;;1999.90;999.90;;;;;;;14.91;80.27;99567.97;10544212;28;20079;-60
2023/10/26 02:07:44;;;;;;;1999.90;999.90;;;;;;;15.87;76.00;99551.66;10544061;28;20404;-60
2023/10/26 02:12:46;;;;;;;1999.90;999.90;;;;;;;15.59;76.05;99546.44;10510366;28;20067;-60
2023/10/26 02:17:49;;;;;;;1999.90;999.90;;;;;;;15.64;76.56;99548.63;10544476;28;20122;-60
2023/10/26 02:22:51;;;;;;;1999.90;999.90;;;;;;;15.04;77.70;99551.81;10543625;28;20412;-60
2023/10/26 02:27:53;;;;;;;1999.90;999.90;;;;;;;14.78;78.87;99541.13;10544013;28;20052;-60
2023/10/26 02:32:56;;;;;;;1999.90;999.90;;;;;;;15.18;77.49;99539.91;10543173;28;20052;-60
2023/10/26 02:37:58;;;;;;;1999.90;999.90;;;;;;;15.15;77.39;99533.16;10543623;28;20059;-60
2023/10/26 02:43:00;;;;;;;1999.90;999.90;;;;;;;15.19;77.04;99536.31;10543423;28;20048;-60
2023/10/26 02:48:03;;;;;;;1999.90;999.90;;;;;;;14.45;81.34;99536.22;10542507;28;20476;-60
2023/10/26 02:53:05;;;;;;;1999.90;999.90;;;;;;;15.12;79.35;99549.25;10525103;28;20051;-60
2023/10/26 02:58:08;;;;;;;1999.90;999.90;;;;;;;14.74;82.16;99563.44;10542185;28;20399;-60
2023/10/26 03:03:10;;;;;;;1999.90;999.90;;;;;;;14.62;81.48;99560.19;10542593;28;20048;-60
2023/10/26 03:08:13;;;;;;;1999.90;999.90;;;;;;;14.93;80.02;99552.84;10541711;28;20087;-60
2023/10/26 03:13:15;;;;;;;1999.90;999.90;;;;;;;15.11;80.55;99557.31;10541552;28;20054;-60
2023/10/26 03:18:17;;;;;;;1999.90;999.90;;;;;;;15.20;79.19;99556.44;10542048;28;20080;-60
2023/10/26 03:23:20;;;;;;;1999.90;999.90;;;;;;;14.68;80.81;99551.72;10541822;28;20172;-60
2023/10/26 03:28:22;;;;;;;1999.90;999.90;;;;;;;14.98;79.92;99550.59;10540920;28;20400;-60
2023/10/26 03:33:24;;;;;;;1999.90;999.90;;;;;;;15.29;76.54;99539.72;10541417;28;20054;-60
2023/10/26 03:38:27;;;;;;;1999.90;999.90;;;;;;;15.35;77.51;99540.94;10541272;28;20056;-60
2023/10/26 03:43:29;;;;;;;1999.90;999.90;;;;;;;15.49;75.56;99544.88;10541163;28;20083;-60
2023/10/26 03:48:35;;;;;;;1999.90;999.90;;;;;;;15.08;76.57;99544.41;10540769;28;20056;-60
2023/10/26 03:53:38;;;;;;;1999.90;999.90;;;;;;;15.32;75.20;99541.25;10540805;28;20056;-60
2023/10/26 03:58:40;;;;;;;1999.90;999.90;;;;;;;15.47;74.23;99537.09;10522809;28;20051;-60
2023/10/26 04:03:42;;;;;;;1999.90;999.90;;;;;;;15.30;73.84;99530.00;10540525;28;20054;-60
2023/10/26 04:08:45;;;;;;;1999.90;999.90;;;;;;;14.95;75.68;99539.53;10539581;28;20059;-60
2023/10/26 04:13:47;;;;;;;1999.90;999.90;;;;;;;14.84;76.14;99545.78;10539589;28;20498;-60
2023/10/26 04:18:49;;;;;;;1999.90;999.90;;;;;;;14.89;75.01;99534.81;10540076;28;20044;-61
2023/10/26 04:23:52;;;;;;;1999.90;999.90;;;;;;;15.01;74.21;99534.50;10540007;28;20048;-60
2023/10/26 04:28:54;;;;;;;1999.90;999.90;;;;;;;14.52;74.52;99547.00;10550190;28;20399;-60
2023/10/26 04:33:58;;;;;;;1999.90;999.90;;;;;;;14.78;74.00;99543.75;10553836;28;20055;-60
2023/10/26 04:39:00;;;;;;;1999.90;999.90;;;;;;;14.72;74.68;99544.34;10553645;28;20040;-60
2023/10/26 04:44:05;;;;;;;1999.90;999.90;;;;;;;14.69;75.18;99537.53;10553609;28;20097;-60
2023/10/26 04:49:07;;;;;;;1999.90;999.90;;;;;;;14.87;75.43;99529.69;10553444;28;20052;-60
2023/10/26 04:54:09;;;;;;;1999.90;999.90;;;;;;;14.65;75.57;99533.53;10553364;28;20058;-60
2023/10/26 04:59:12;;;;;;;1999.90;999.90;;;;;;;14.75;76.55;99549.31;10553281;28;20051;-60
2023/10/26 05:04:14;;;;;;;1999.90;999.90;;;;;;;15.27;74.68;99541.69;10552594;28;20052;-60
2023/10/26 05:09:17;;;;;;;1999.90;999.90;;;;;;;14.73;77.22;99549.47;10534200;28;20251;-60
2023/10/26 05:14:20;;;;;;;1999.90;999.90;;;;;;;15.20;75.73;99540.63;10552412;28;20080;-60
2023/10/26 05:19:22;;;;;;;1999.90;999.90;;;;;;;15.34;74.64;99534.00;10552890;28;20119;-60
2023/10/26 05:24:26;;;;;;;1999.90;999.90;;;;;;;15.18;74.72;99532.00;10534922;28;20044;-59
2023/10/26 05:29:29;;;;;;;1999.90;999.90;;;;;;;15.07;74.09;99533.06;10534654;28;20044;-60
2023/10/26 05:34:31;;;;;;;1999.90;999.90;;;;;;;14.95;75.84;99528.97;10552647;28;20090;-60
2023/10/26 05:39:34;;;;;;;1999.90;999.90;;;;;;;15.26;74.02;99521.56;10547099;28;20048;-60
2023/10/26 05:44:36;;;;;;;1999.90;999.90;;;;;;;14.82;73.54;99510.88;10545181;28;20047;-60
2023/10/26 05:49:38;;;;;;;1999.90;999.90;;;;;;;14.50;74.46;99507.63;10545059;28;20131;-60
2023/10/26 05:54:41;;;;;;;1999.90;999.90;;;;;;;14.36;75.25;99504.69;10526875;28;20488;-60
2023/10/26 05:59:44;;;;;;;1999.90;999.90;;;;;;;14.14;76.01;99509.31;10545269;28;20048;-61
2023/10/26 06:04:46;;;;;;;1999.90;999.90;;;;;;;14.22;75.88;99509.44;10544391;28;20074;-60
2023/10/26 06:09:50;;;;;;;1999.90;999.90;;;;;;;14.06;74.72;99511.81;10526053;28;20052;-60
2023/10/26 06:14:52;;;;;;;1999.90;999.90;;;;;;;14.24;73.76;99522.41;10544640;28;20056;-60
2023/10/26 06:19:54;;;;;;;1999.90;999.90;;;;;;;14.02;73.69;99524.44;10543792;28;20485;-62
2023/10/26 06:24:57;;;;;;;1999.90;999.90;;;;;;;14.00;73.36;99528.16;10543541;28;20504;-60
2023/10/26 06:29:59;;;;;;;1999.90;999.90;;;;;;;13.90;74.35;99520.28;10543293;28;20396;-60
2023/10/26 06:35:02;;;;;;;1999.90;999.90;;;;;;;13.89;73.27;99519.44;10543131;28;20382;-60
2023/10/26 06:40:08;;;;;;;1999.90;999.90;;;;;;;14.03;72.14;99533.97;10543075;28;20319;-59
2023/10/26 06:45:11;;;;;;;1999.90;999.90;;;;;;;14.44;73.63;99537.19;10543348;28;20078;-60
2023/10/26 06:50:13;;;;;;;1999.90;999.90;;;;;;;14.28;74.27;99524.63;10542166;28;20386;-60
2023/10/26 06:55:16;;;;;;;1999.90;999.90;;;;;;;14.84;72.88;99514.19;10542355;28;20480;-64
2023/10/26 07:00:34;;;;;;;1999.90;999.90;;;;;;;14.51;74.10;99524.28;10526880;28;20139;-60
2023/10/26 07:05:36;;;;;;;1999.90;999.90;;;;;;;15.03;72.82;99516.72;10523711;28;20500;-59
2023/10/26 07:10:41;;;;;;;1999.90;999.90;;;;;;;14.76;75.41;99514.06;10541756;28;20054;-60
2023/10/26 07:15:44;;;;;;;1999.90;999.90;;;;;;;14.90;75.56;99518.06;10524330;28;20052;-59
2023/10/26 07:20:48;;;;;;;1999.90;999.90;;;;;;;14.97;76.98;99525.19;10542030;28;20142;-60
2023/10/26 07:25:51;;;;;;;1999.90;999.90;;;;;;;15.08;75.03;99523.34;10541289;28;20135;-60
2023/10/26 07:30:53;;;;;;;1999.90;999.90;;;;;;;15.13;75.38;99516.66;10541076;28;20473;-60
2023/10/26 07:35:56;;;;;;;1999.90;999.90;;;;;;;15.28;76.07;99514.34;10541480;28;20095;-59
2023/10/26 07:41:00;;;;;;;1999.90;999.90;;;;;;;15.47;74.94;99499.34;10523286;28;20122;-60
2023/10/26 07:46:03;;;;;;;1999.90;999.90;;;;;;;14.71;78.13;99506.63;10541120;28;20048;-60
2023/10/26 07:51:05;;;;;;;1999.90;999.90;;;;;;;14.46;79.21;99511.56;10522404;28;20048;-60
2023/10/26 07:56:08;;;;;;;1999.90;999.90;;;;;;;15.24;77.94;99515.59;10522189;28;20056;-59
2023/10/26 08:01:10;;;;;;;1999.90;999.90;;;;;;;15.14;77.25;99509.56;10539947;28;20040;-59
2023/10/26 08:06:13;;;;;;;1999.90;999.90;;;;;;;15.29;76.64;99504.63;10540119;28;20057;-60
2023/10/26 08:11:16;;;;;;;1999.90;999.90;;;;;;;15.45;77.72;99511.84;10521819;28;20070;-60
2023/10/26 08:16:18;;;;;;;1999.90;999.90;;;;;;;15.37;76.91;99512.59;10539588;28;20489;-59
2023/10/26 08:21:41;;;;;;;1999.90;999.90;;;;;;;15.12;77.41;99522.91;10540102;28;20044;-59
2023/10/26 08:26:44;;;;;;;1999.90;999.90;;;;;;;14.93;78.93;99538.81;10539941;28;20052;-60
2023/10/26 08:31:46;;;;;;;1999.90;999.90;;;;;;;14.55;82.59;99543.25;10521950;28;20051;-60
2023/10/26 08:36:49;;;;;;;1999.90;999.90;;;;;;;14.40;81.71;99556.06;10504689;28;20474;-60
2023/10/26 08:42:11;;;;;;;1999.90;999.90;;;;;;;15.16;80.35;99561.19;10539041;28;20056;-60
2023/10/26 08:47:19;;;;;;;1999.90;999.90;;;;;;;15.49;78.79;99566.78;10539604;28;20055;-60
2023/10/26 08:52:25;;;;;;;1999.90;999.90;;;;;;;15.36;78.17;99580.31;10538834;28;20433;-59
2023/10/26 08:57:27;;;;;;;1999.90;999.90;;;;;;;15.04;79.49;99572.88;10538762;28;20047;-60
2023/10/26 09:02:29;;;;;;;1999.90;999.90;;;;;;;15.42;78.43;99581.56;10539265;28;20044;-60
2023/10/26 09:07:32;;;;;;;1999.90;999.90;;;;;;;15.15;79.66;99585.06;10538705;28;20056;-60
2023/10/26 09:12:34;;;;;;;1999.90;999.90;;;;;;;15.51;81.04;99583.28;10540542;28;20447;-60
2023/10/26 09:17:37;;;;;;;1999.90;999.90;;;;;;;15.52;79.71;99570.94;10546354;28;20131;-60
2023/10/26 09:22:40;;;;;;;1999.90;999.90;;;;;;;15.00;81.65;99580.25;10546112;28;20550;-60
2023/10/26 09:27:44;;;;;;;1999.90;999.90;;;;;;;15.61;80.23;99570.03;10546561;28;20066;-60
2023/10/26 09:32:46;;;;;;;1999.90;999.90;;;;;;;16.05;76.97;99558.72;10512058;28;20047;-60
2023/10/26 09:37:52;;;;;;;1999.90;999.90;;;;;;;16.10;76.42;99557.25;10546209;28;20054;-60
2023/10/26 09:42:57;;;;;;;1999.90;999.90;;;;;;;16.34;75.77;99547.88;10546008;28;20044;-59
2023/10/26 09:48:05;;;;;;;1999.90;999.90;;;;;;;15.85;77.93;99540.41;10545869;28;20048;-60
2023/10/26 09:53:08;;;;;;;1999.90;999.90;;;;;;;15.78;78.67;99548.13;10545547;28;20059;-60
2023/10/26 09:58:16;;;;;;;1999.90;999.90;;;;;;;15.69;79.04;99543.72;10512253;28;20058;-60
2023/10/26 10:03:19;;;;;;;1999.90;999.90;;;;;;;16.03;77.73;99542.22;10526553;28;20488;-60
2023/10/26 10:08:59;;;;;;;1999.90;999.90;;;;;;;15.91;78.19;99536.34;10544055;28;20060;-60
2023/10/26 10:14:01;;;;;;;1999.90;999.90;;;;;;;16.66;76.99;99535.78;10526285;28;20048;-60
2023/10/26 10:19:18;;;;;;;1999.90;999.90;;;;;;;15.83;78.58;99534.47;10543979;28;20063;-60
2023/10/26 10:24:39;;;;;;;1999.90;999.90;;;;;;;16.25;77.11;99525.84;10377942;22;20064;-63
2023/10/26 10:29:41;;;;;;;1999.90;999.90;;;;;;;16.47;77.22;99519.19;10371739;28;20073;-64
2023/10/26 10:34:45;;;;;;;1999.90;999.90;;;;;;;15.79;76.97;99525.22;10354944;28;20060;-63
2023/10/26 10:40:14;;;;;;;1999.90;999.90;;;;;;;16.47;78.03;99527.13;10372066;28;20129;-63
2023/10/26 10:45:17;;;;;;;1999.90;999.90;;;;;;;15.92;76.54;99517.72;10354567;28;20049;-63
2023/10/26 10:50:22;;;;;;;1999.90;999.90;;;;;;;16.84;76.44;99520.72;10371681;28;20057;-64
2023/10/26 10:55:32;;;;;;;1999.90;999.90;;;;;;;16.41;77.92;99511.06;10370884;28;20563;-63
2023/10/26 11:00:45;;;;;;;1999.90;999.90;;;;;;;15.91;77.01;99502.84;10372048;28;20058;-63
2023/10/26 11:05:48;;;;;;;1999.90;999.90;;;;;;;16.87;73.10;99495.78;10371320;28;20046;-63
2023/10/26 11:10:50;;;;;;;1999.90;999.90;;;;;;;17.59;73.56;99495.25;10353601;28;20045;-63
2023/10/26 11:15:53;;;;;;;1999.90;999.90;;;;;;;17.02;74.57;99496.81;10370901;28;20054;-64
2023/10/26 11:20:55;;;;;;;1999.90;999.90;;;;;;;16.99;74.52;99494.50;10369957;28;20414;-64
2023/10/26 11:26:12;;;;;;;1999.90;999.90;;;;;;;16.70;74.44;99481.66;10352622;28;20516;-64
2023/10/26 11:31:15;;;;;;;1999.90;999.90;;;;;;;17.02;75.45;99467.72;10370396;28;20046;-64
2023/10/26 11:36:17;;;;;;;1999.90;999.90;;;;;;;17.21;73.65;99465.78;10351762;28;20050;-63
2023/10/26 11:41:24;;;;;;;1999.90;999.90;;;;;;;17.34;75.57;99475.88;10370115;28;20050;-64
2023/10/26 11:46:36;;;;;;;1999.90;999.90;;;;;;;17.92;74.88;99466.97;10352543;28;20133;-64
2023/10/26 11:51:39;;;;;;;1999.90;999.90;;;;;;;17.19;74.48;99470.41;10352498;28;20041;-63
2023/10/26 11:56:48;;;;;;;1999.90;999.90;;;;;;;16.76;74.60;99482.81;10369717;28;20054;-63
2023/10/26 12:01:51;;;;;;;1999.90;999.90;;;;;;;16.29;75.80;99477.03;10369556;28;20046;-63
2023/10/26 12:06:53;;;;;;;1999.90;999.90;;;;;;;17.02;74.78;99488.88;10369325;28;20103;-64
2023/10/26 12:11:55;;;;;;;1999.90;999.90;;;;;;;16.86;73.62;99489.69;10369251;28;20049;-63
2023/10/26 12:16:58;;;;;;;1999.90;999.90;;;;;;;16.85;73.09;99480.09;10368466;28;20072;-63
2023/10/26 12:22:00;;;;;;;1999.90;999.90;;;;;;;16.24;75.41;99475.81;10368167;28;20406;-63
2023/10/26 12:27:03;;;;;;;1999.90;999.90;;;;;;;16.69;73.62;99472.91;10351557;28;20045;-63
2023/10/26 12:32:05;;;;;;;1999.90;999.90;;;;;;;17.25;74.81;99462.66;10368064;28;20133;-64
2023/10/26 12:37:08;;;;;;;1999.90;999.90;;;;;;;17.22;72.74;99464.81;10367958;28;20405;-63
2023/10/26 12:42:10;;;;;;;1999.90;999.90;;;;;;;16.05;74.56;99459.22;10367821;28;20479;-63
2023/10/26 12:47:12;;;;;;;1999.90;999.90;;;;;;;16.93;72.89;99462.59;10369108;28;20049;-63
2023/10/26 12:52:15;;;;;;;1999.90;999.90;;;;;;;16.41;72.04;99450.31;10374730;28;20103;-63
2023/10/26 12:57:17;;;;;;;1999.90;999.90;;;;;;;16.96;71.00;99446.41;10358104;28;20049;-63
2023/10/26 13:02:19;;;;;;;1999.90;999.90;;;;;;;16.95;71.90;99444.75;10375130;28;20048;-63
2023/10/26 13:07:22;;;;;;;1999.90;999.90;;;;;;;17.22;71.38;99428.59;10357077;28;20535;-63
2023/10/26 13:12:24;;;;;;;1999.90;999.90;;;;;;;16.86;71.87;99428.88;10374786;28;20075;-63
2023/10/26 13:17:26;;;;;;;1999.90;999.90;;;;;;;16.96;70.41;99420.78;10374028;28;20075;-63
2023/10/26 13:22:29;;;;;;;1999.90;999.90;;;;;;;17.49;72.04;99412.56;10374019;28;20050;-64
2023/10/26 13:27:31;;;;;;;1999.90;999.90;;;;;;;17.23;69.43;99417.03;10373690;28;20487;-64
2023/10/26 13:32:34;;;;;;;1999.90;999.90;;;;;;;17.31;72.19;99405.59;10373511;28;20411;-63
2023/10/26 13:37:36;;;;;;;1999.90;999.90;;;;;;;17.71;70.73;99413.69;10374020;28;20049;-63
2023/10/26 13:42:39;;;;;;;1999.90;999.90;;;;;;;17.31;71.71;99421.47;10356887;28;20075;-63
2023/10/26 13:47:41;;;;;;;1999.90;999.90;;;;;;;16.85;72.15;99426.41;10356739;28;20138;-63
2023/10/26 13:52:43;;;;;;;1999.90;999.90;;;;;;;17.19;71.31;99422.81;10372836;28;20535;-63
2023/10/26 13:57:46;;;;;;;1999.90;999.90;;;;;;;17.18;72.26;99416.69;10373181;28;20053;-63
2023/10/26 14:02:48;;;;;;;1999.90;999.90;;;;;;;16.80;73.81;99423.38;10372665;28;20071;-63
2023/10/26 14:07:50;;;;;;;1999.90;999.90;;;;;;;18.22;73.58;99405.47;10373321;28;20085;-63
2023/10/26 14:12:53;;;;;;;1999.90;999.90;;;;;;;18.00;71.73;99392.81;10372263;28;20046;-63
2023/10/26 14:17:55;;;;;;;1999.90;999.90;;;;;;;18.00;71.67;99387.50;10372279;28;20058;-63
2023/10/26 14:22:58;;;;;;;1999.90;999.90;;;;;;;17.89;69.53;99393.16;10354715;28;20056;-63
2023/10/26 14:28:03;;;;;;;1999.90;999.90;;;;;;;18.16;69.47;99402.50;10372496;28;20057;-63
2023/10/26 14:33:06;;;;;;;1999.90;999.90;;;;;;;16.79;71.73;99401.41;10371636;28;20490;-63
2023/10/26 14:38:09;;;;;;;1999.90;999.90;;;;;;;17.53;70.74;99384.75;10372202;28;20049;-63
2023/10/26 14:43:14;;;;;;;1999.90;999.90;;;;;;;17.51;70.68;99373.53;10371979;28;20091;-63
2023/10/26 14:48:17;;;;;;;1999.90;999.90;;;;;;;17.54;71.98;99360.78;10371825;28;20125;-63
2023/10/26 14:53:19;;;;;;;1999.90;999.90;;;;;;;17.49;70.21;99359.66;10370941;28;20050;-63
2023/10/26 14:58:22;;;;;;;1999.90;999.90;;;;;;;17.24;71.70;99360.47;10371706;28;20081;-63
2023/10/26 15:03:26;;;;;;;1999.90;999.90;;;;;;;17.07;72.47;99378.16;10370687;28;20487;-63
2023/10/26 15:08:29;;;;;;;1999.90;999.90;;;;;;;17.04;71.31;99375.03;10371212;28;20054;-63
2023/10/26 15:13:33;;;;;;;1999.90;999.90;;;;;;;17.43;70.75;99361.97;10370005;28;20050;-63
2023/10/26 15:18:36;;;;;;;1999.90;999.90;;;;;;;17.31;72.40;99351.88;10370382;28;20065;-63
2023/10/26 15:23:40;;;;;;;1999.90;999.90;;;;;;;17.49;71.46;99355.16;10370054;28;20050;-63
2023/10/26 15:28:42;;;;;;;1999.90;999.90;;;;;;;17.45;70.51;99345.94;10370557;28;20049;-63
2023/10/26 15:33:45;;;;;;;1999.90;999.90;;;;;;;17.34;71.96;99344.44;10370266;28;20077;-63
2023/10/26 15:38:49;;;;;;;1999.90;999.90;;;;;;;17.30;72.42;99350.22;10370243;28;20054;-63
2023/10/26 15:43:51;;;;;;;1999.90;999.90;;;;;;;17.03;72.82;99339.84;10370069;28;20076;-63
2023/10/26 15:48:55;;;;;;;1999.90;999.90;;;;;;;17.35;72.22;99332.88;10369266;28;20487;-63
2023/10/26 15:54:17;;;;;;;1999.90;999.90;;;;;;;17.52;70.70;99324.91;10369006;28;20042;-63
2023/10/26 15:59:22;;;;;;;1999.90;999.90;;;;;;;17.27;72.43;99314.38;10369021;28;20557;-63
2023/10/26 16:04:25;;;;;;;1999.90;999.90;;;;;;;17.12;72.86;99310.75;10370058;28;20048;-63
2023/10/26 16:09:31;;;;;;;1999.90;999.90;;;;;;;17.18;73.12;99326.78;10369297;28;20054;-63
2023/10/26 16:14:37;;;;;;;1999.90;999.90;;;;;;;17.21;72.08;99322.97;10352058;28;20410;-63
2023/10/26 16:19:40;;;;;;;1999.90;999.90;;;;;;;16.95;73.04;99323.16;10369006;28;20074;-62
2023/10/26 16:24:42;;;;;;;1999.90;999.90;;;;;;;17.00;73.08;99331.41;10368207;28;20050;-63
2023/10/26 16:29:46;;;;;;;1999.90;999.90;;;;;;;16.58;74.41;99333.16;10368697;28;20053;-63
2023/10/26 16:34:48;;;;;;;1999.90;999.90;;;;;;;16.67;74.83;99339.28;10368655;28;20050;-63
2023/10/26 16:39:51;;;;;;;1999.90;999.90;;;;;;;16.97;73.82;99340.50;10367850;28;20477;-63
2023/10/26 16:44:53;;;;;;;1999.90;999.90;;;;;;;16.58;74.29;99351.66;10368497;28;20054;-63
2023/10/26 16:49:56;;;;;;;1999.90;999.90;;;;;;;16.63;74.00;99356.47;10367797;28;20053;-63
2023/10/26 16:54:59;;;;;;;1999.90;999.90;;;;;;;16.76;74.68;99354.16;10368157;28;20054;-63
2023/10/26 17:00:02;;;;;;;1999.90;999.90;;;;;;;16.80;74.16;99363.41;10368072;28;20045;-63
2023/10/26 17:05:05;;;;;;;1999.90;999.90;;;;;;;16.76;74.46;99353.31;10367284;28;20447;-63
2023/10/26 17:10:10;;;;;;;1999.90;999.90;;;;;;;16.63;75.67;99352.00;10367746;28;20045;-63
2023/10/26 17:15:14;;;;;;;1999.90;999.90;;;;;;;16.70;74.87;99344.25;10367616;28;20054;-63
2023/10/26 17:20:16;;;;;;;1999.90;999.90;;;;;;;16.48;75.27;99333.31;10366793;28;20065;-63
2023/10/26 17:25:20;;;;;;;1999.90;999.90;;;;;;;16.82;74.44;99334.19;10367634;28;20064;-63
2023/10/26 17:30:22;;;;;;;1999.90;999.90;;;;;;;16.80;73.82;99344.09;10366559;28;20483;-63
2023/10/26 17:35:25;;;;;;;1999.90;999.90;;;;;;;16.97;73.14;99348.41;10371668;28;20054;-63
2023/10/26 17:40:27;;;;;;;1999.90;999.90;;;;;;;16.57;75.88;99341.25;10373297;28;20406;-63
2023/10/26 17:45:29;;;;;;;1999.90;999.90;;;;;;;16.87;73.77;99353.88;10373195;28;20411;-63
2023/10/26 17:50:36;;;;;;;1999.90;999.90;;;;;;;16.53;75.69;99349.50;10373718;28;20087;-63
2023/10/26 17:55:38;;;;;;;1999.90;999.90;;;;;;;16.26;76.48;99350.56;10373162;28;20494;-63
2023/10/26 18:00:41;;;;;;;1999.90;999.90;;;;;;;16.88;74.63;99349.44;10372802;28;20554;-63
2023/10/26 18:05:44;;;;;;;1999.90;999.90;;;;;;;16.68;75.47;99340.94;10355276;28;20512;-63
2023/10/26 18:10:47;;;;;;;1999.90;999.90;;;;;;;16.72;74.21;99336.97;10355180;28;20081;-65
2023/10/26 18:15:53;;;;;;;1999.90;999.90;;;;;;;16.60;75.91;99339.09;10354944;28;20503;-63
2023/10/26 18:20:57;;;;;;;1999.90;999.90;;;;;;;16.70;75.35;99326.56;10372137;28;20053;-63
2023/10/26 18:26:10;;;;;;;1999.90;999.90;;;;;;;16.95;74.19;99323.16;10372116;28;20410;-63
2023/10/26 18:31:15;;;;;;;1999.90;999.90;;;;;;;16.79;74.87;99319.47;10372353;28;20099;-63
2023/10/26 18:36:20;;;;;;;1999.90;999.90;;;;;;;16.57;75.18;99314.81;10371673;28;20077;-63
2023/10/26 18:41:24;;;;;;;1999.90;999.90;;;;;;;16.80;74.83;99310.56;10354814;28;20049;-63
2023/10/26 18:46:27;;;;;;;1999.90;999.90;;;;;;;16.53;76.15;99317.78;10353474;28;20075;-63
2023/10/26 18:51:30;;;;;;;1999.90;999.90;;;;;;;16.67;75.38;99313.66;10371670;28;20046;-63
2023/10/26 18:56:32;;;;;;;1999.90;999.90;;;;;;;17.01;74.56;99309.25;10371544;28;20053;-63
2023/10/26 19:01:35;;;;;;;1999.90;999.90;;;;;;;16.97;74.13;99310.59;10370784;28;20050;-63
2023/10/26 19:06:39;;;;;;;1999.90;999.90;;;;;;;16.44;76.46;99305.56;10371281;28;20062;-63
2023/10/26 19:11:43;;;;;;;1999.90;999.90;;;;;;;16.89;74.70;99314.91;10371019;28;20130;-63
2023/10/26 19:16:45;;;;;;;1999.90;999.90;;;;;;;16.67;75.05;99318.97;10370986;28;20129;-63
2023/10/26 19:21:47;;;;;;;1999.90;999.90;;;;;;;16.88;74.49;99320.34;10370426;28;20167;-63
2023/10/26 19:26:50;;;;;;;1999.90;999.90;;;;;;;16.84;74.55;99314.53;10370578;28;20053;-63
2023/10/26 19:31:52;;;;;;;1999.90;999.90;;;;;;;16.71;76.06;99315.00;10370462;28;20054;-63
2023/10/26 19:36:55;;;;;;;1999.90;999.90;;;;;;;17.01;73.00;99307.47;10370340;28;20050;-63
2023/10/26 19:41:57;;;;;;;1999.90;999.90;;;;;;;16.87;74.90;99297.53;10352298;28;20054;-63
2023/10/26 19:46:59;;;;;;;1999.90;999.90;;;;;;;16.33;76.20;99297.94;10369437;28;20406;-63
2023/10/26 19:52:02;;;;;;;1999.90;999.90;;;;;;;16.88;74.28;99297.38;10352491;28;20046;-63
2023/10/26 19:57:04;;;;;;;1999.90;999.90;;;;;;;16.59;73.93;99308.38;10368027;28;20081;-63
2023/10/26 20:02:07;;;;;;;1999.90;999.90;;;;;;;16.14;74.82;99313.09;10369547;28;20056;-63
2023/10/26 20:07:09;;;;;;;1999.90;999.90;;;;;;;15.93;77.77;99302.94;10368772;28;20073;-63
2023/10/26 20:12:12;;;;;;;1999.90;999.90;;;;;;;16.10;77.66;99313.56;10369230;28;20046;-63
2023/10/26 20:17:15;;;;;;;1999.90;999.90;;;;;;;16.18;77.26;99294.28;10369137;28;20060;-63
2023/10/26 20:22:17;;;;;;;1999.90;999.90;;;;;;;16.11;78.48;99280.91;10368161;28;20410;-63
2023/10/26 20:27:20;;;;;;;1999.90;999.90;;;;;;;16.56;75.54;99257.69;10368848;28;20050;-63
2023/10/26 20:32:22;;;;;;;1999.90;999.90;;;;;;;16.67;74.22;99262.66;10368652;28;20050;-63
2023/10/26 20:37:24;;;;;;;1999.90;999.90;;;;;;;16.32;74.66;99267.22;10368614;28;20049;-63
2023/10/26 20:42:27;;;;;;;1999.90;999.90;;;;;;;16.29;74.75;99268.41;10368528;28;20050;-63
2023/10/26 20:47:29;;;;;;;1999.90;999.90;;;;;;;16.17;76.82;99267.03;10367706;28;20050;-63
2023/10/26 20:52:31;;;;;;;1999.90;999.90;;;;;;;16.35;76.21;99259.81;10367577;28;20449;-63
2023/10/26 20:57:34;;;;;;;1999.90;999.90;;;;;;;16.15;76.07;99269.00;10367453;28;20415;-63
2023/10/26 21:02:36;;;;;;;1999.90;999.90;;;;;;;16.35;76.66;99277.47;10367995;28;20049;-63
2023/10/26 21:07:39;;;;;;;1999.90;999.90;;;;;;;16.42;75.79;99265.25;10368429;28;20107;-63
2023/10/26 21:12:42;;;;;;;1999.90;999.90;;;;;;;16.58;74.93;99263.66;10374840;28;20046;-63
2023/10/26 21:17:44;;;;;;;1999.90;999.90;;;;;;;16.58;74.09;99261.00;10357331;28;20061;-63
2023/10/26 21:22:47;;;;;;;1999.90;999.90;;;;;;;16.39;77.27;99262.97;10373932;28;20533;-63
2023/10/26 21:27:49;;;;;;;1999.90;999.90;;;;;;;16.49;75.71;99241.66;10373698;28;20125;-63
2023/10/26 21:32:52;;;;;;;1999.90;999.90;;;;;;;16.80;73.94;99241.03;10374171;28;20050;-63
2023/10/26 21:37:55;;;;;;;1999.90;999.90;;;;;;;16.89;72.75;99232.09;10374130;28;20056;-63
2023/10/26 21:42:58;;;;;;;1999.90;999.90;;;;;;;16.46;73.73;99212.97;10373348;28;20505;-63
2023/10/26 21:48:01;;;;;;;1999.90;999.90;;;;;;;16.52;73.64;99220.22;10373780;28;20049;-63
2023/10/26 21:53:03;;;;;;;1999.90;999.90;;;;;;;15.41;78.66;99222.03;10373531;28;20046;-63
2023/10/26 21:58:09;;;;;;;1999.90;999.90;;;;;;;15.81;77.94;99209.22;10373479;28;20045;-63
2023/10/26 22:03:11;;;;;;;1999.90;999.90;;;;;;;15.36;79.51;99218.22;10373317;28;20073;-63
2023/10/26 22:08:14;;;;;;;1999.90;999.90;;;;;;;16.23;75.31;99207.50;10373167;28;20049;-63
2023/10/26 22:13:17;;;;;;;1999.90;999.90;;;;;;;16.01;76.07;99209.75;10355555;28;20053;-63